Time;durP1;ratioP1;P1;durP2;ratioP2;P2;SDS_P1;SDS_P2;PMS_P1;PMS_P2;Temp;Humidity;BMP_temperature;BMP_pressure;BME280_temperature;BME280_humidity;BME280_pressure;Samples;Min_cycle;Max_cycle;Signal;HPM_P1;HPM_P2
2021/10/04 00:02:25;;;;;;;1.30;1.20;;;14.40;99.90;;;;;;6059805;23;20159;-68
2021/10/04 00:04:50;;;;;;;1.80;1.67;;;14.40;99.90;;;;;;6059197;23;20705;-68
2021/10/04 00:07:19;;;;;;;1.70;1.60;;;14.40;99.90;;;;;;6034036;23;20564;-68
2021/10/04 00:09:45;;;;;;;2.23;1.40;;;14.40;99.90;;;;;;6060736;23;20606;-67
2021/10/04 00:12:10;;;;;;;1.60;1.50;;;14.40;99.90;;;;;;6059869;23;20607;-67
2021/10/04 00:14:39;;;;;;;1.93;1.50;;;14.30;99.90;;;;;;6031538;23;20976;-68
2021/10/04 00:17:04;;;;;;;1.63;1.50;;;14.40;99.90;;;;;;6032608;23;20166;-70
2021/10/04 00:19:30;;;;;;;2.77;2.20;;;14.30;99.90;;;;;;6058988;23;20592;-70
2021/10/04 00:21:58;;;;;;;1.80;1.70;;;14.30;99.90;;;;;;6034694;23;20175;-68
2021/10/04 00:24:25;;;;;;;1.90;1.80;;;14.30;99.90;;;;;;6061925;23;20513;-68
2021/10/04 00:26:53;;;;;;;2.50;1.60;;;14.20;99.90;;;;;;6057297;23;20532;-68
2021/10/04 00:29:20;;;;;;;1.60;1.50;;;14.10;99.90;;;;;;6060757;23;20540;-69
2021/10/04 00:31:49;;;;;;;2.00;1.67;;;14.10;99.90;;;;;;6059647;23;20537;-68
2021/10/04 00:34:15;;;;;;;1.90;1.80;;;14.20;99.90;;;;;;6058835;23;21106;-68
2021/10/04 00:36:41;;;;;;;2.00;1.90;;;14.20;99.90;;;;;;6058999;23;20536;-69
2021/10/04 00:39:06;;;;;;;1.90;1.80;;;14.20;99.90;;;;;;6060624;23;21222;-67
2021/10/04 00:41:33;;;;;;;2.17;2.07;;;14.30;99.90;;;;;;6060823;23;20203;-68
2021/10/04 00:43:58;;;;;;;2.07;1.77;;;14.20;99.90;;;;;;6057877;23;20286;-68
2021/10/04 00:46:27;;;;;;;1.87;1.53;;;14.10;99.90;;;;;;6035048;23;20564;-68
2021/10/04 00:48:53;;;;;;;1.90;1.67;;;14.10;99.90;;;;;;6059769;23;20155;-68
2021/10/04 00:51:20;;;;;;;4.90;2.00;;;14.10;99.90;;;;;;6060515;23;20606;-69
2021/10/04 00:53:53;;;;;;;2.30;2.07;;;14.10;99.90;;;;;;6058779;23;20604;-70
2021/10/04 00:56:22;;;;;;;2.50;2.00;;;14.10;99.90;;;;;;6059970;23;20645;-68
2021/10/04 00:58:51;;;;;;;2.53;2.33;;;14.10;99.90;;;;;;6062027;23;20915;-68
2021/10/04 01:01:17;;;;;;;4.10;2.20;;;14.10;99.90;;;;;;6034910;23;20704;-68
2021/10/04 01:03:46;;;;;;;2.40;2.20;;;14.10;99.90;;;;;;6058640;23;20592;-68
2021/10/04 01:06:12;;;;;;;4.20;2.00;;;14.10;99.90;;;;;;6060255;23;20536;-68
2021/10/04 01:08:37;;;;;;;2.70;2.50;;;13.90;99.90;;;;;;6060092;23;20540;-68
2021/10/04 01:11:03;;;;;;;3.23;2.00;;;13.90;99.90;;;;;;6059513;23;20223;-68
2021/10/04 01:13:29;;;;;;;5.47;2.90;;;13.80;99.90;;;;;;6032042;23;20584;-68
2021/10/04 01:15:57;;;;;;;4.00;2.30;;;13.80;99.90;;;;;;6057044;23;20172;-68
2021/10/04 01:18:25;;;;;;;3.17;2.53;;;13.80;99.90;;;;;;6059418;23;20994;-69
2021/10/04 01:20:53;;;;;;;3.60;2.37;;;13.80;99.90;;;;;;6060727;23;20642;-68
2021/10/04 01:23:19;;;;;;;2.83;2.30;;;13.80;99.90;;;;;;6057709;23;21146;-69
2021/10/04 01:25:45;;;;;;;2.73;2.53;;;13.80;99.90;;;;;;6033132;23;20564;-68
2021/10/04 01:28:12;;;;;;;3.63;2.30;;;13.80;99.90;;;;;;6060015;23;20440;-69
2021/10/04 01:30:39;;;;;;;4.20;2.43;;;13.80;99.90;;;;;;6058717;23;20206;-70
2021/10/04 01:33:04;;;;;;;2.37;2.20;;;13.80;99.90;;;;;;6033930;23;20564;-68
2021/10/04 01:35:30;;;;;;;3.00;2.57;;;13.80;99.90;;;;;;6059453;23;20583;-68
2021/10/04 01:37:56;;;;;;;2.77;2.47;;;13.90;99.90;;;;;;6058164;23;20261;-69
2021/10/04 01:40:24;;;;;;;4.40;2.70;;;13.80;99.90;;;;;;6059368;23;20176;-70
2021/10/04 01:42:50;;;;;;;3.20;2.40;;;13.80;99.90;;;;;;6060645;23;20218;-68
2021/10/04 01:45:22;;;;;;;2.53;2.33;;;13.70;99.90;;;;;;6058821;23;20595;-68
2021/10/04 01:47:48;;;;;;;3.10;2.10;;;13.70;99.90;;;;;;6058634;23;20967;-68
2021/10/04 01:50:15;;;;;;;2.60;2.23;;;13.60;99.90;;;;;;6061010;23;20571;-70
2021/10/04 01:52:44;;;;;;;4.40;2.53;;;13.60;99.90;;;;;;6034830;23;20178;-68
2021/10/04 01:55:10;;;;;;;2.90;2.27;;;13.70;99.90;;;;;;6058081;23;20596;-68
2021/10/04 01:57:36;;;;;;;3.23;2.40;;;13.70;99.90;;;;;;6057602;23;20975;-68
2021/10/04 02:00:07;;;;;;;3.50;2.40;;;13.70;99.90;;;;;;6061028;23;20572;-68
2021/10/04 02:02:33;;;;;;;3.47;2.30;;;13.70;99.90;;;;;;6059663;23;20560;-68
2021/10/04 02:04:58;;;;;;;3.17;2.20;;;13.60;99.90;;;;;;6059547;23;20603;-68
2021/10/04 02:07:26;;;;;;;3.67;2.00;;;13.70;99.90;;;;;;6059505;23;20666;-69
2021/10/04 02:09:52;;;;;;;2.30;2.10;;;13.70;99.90;;;;;;6060357;23;20186;-68
2021/10/04 02:12:17;;;;;;;2.57;1.80;;;13.80;99.90;;;;;;6059283;23;20536;-69
2021/10/04 02:14:45;;;;;;;4.70;2.73;;;13.80;99.90;;;;;;6059242;23;20199;-67
2021/10/04 02:17:11;;;;;;;2.60;2.00;;;13.80;99.90;;;;;;6056197;23;20577;-68
2021/10/04 02:19:44;;;;;;;2.90;2.23;;;13.70;99.90;;;;;;6033737;23;20615;-68
2021/10/04 02:22:09;;;;;;;2.20;2.00;;;13.70;99.90;;;;;;6035748;23;20184;-69
2021/10/04 02:24:38;;;;;;;2.97;2.13;;;13.60;99.90;;;;;;6059091;23;20596;-69
2021/10/04 02:27:04;;;;;;;2.37;1.87;;;13.60;99.90;;;;;;6058369;23;20626;-68
2021/10/04 02:29:29;;;;;;;4.23;2.40;;;13.60;99.90;;;;;;6060332;23;20540;-69
2021/10/04 02:31:57;;;;;;;5.93;2.60;;;13.50;99.90;;;;;;6033551;23;20176;-68
2021/10/04 02:34:25;;;;;;;3.20;2.10;;;13.60;99.90;;;;;;6033599;23;20211;-68
2021/10/04 02:36:51;;;;;;;4.30;2.87;;;13.50;99.90;;;;;;6059918;23;20537;-69
2021/10/04 02:39:17;;;;;;;2.93;2.60;;;13.50;99.90;;;;;;6034567;23;21000;-69
2021/10/04 02:41:42;;;;;;;2.70;2.47;;;13.50;99.90;;;;;;6059362;23;20195;-68
2021/10/04 02:44:10;;;;;;;2.63;2.07;;;13.50;99.90;;;;;;6060927;23;20274;-69
2021/10/04 02:46:36;;;;;;;6.00;2.27;;;13.50;99.90;;;;;;6060680;23;20290;-68
2021/10/04 02:49:02;;;;;;;4.73;3.10;;;13.50;99.90;;;;;;6033778;23;20647;-69
2021/10/04 02:51:30;;;;;;;5.27;2.43;;;13.50;99.90;;;;;;6062239;23;20250;-69
2021/10/04 02:53:56;;;;;;;2.60;2.20;;;13.50;99.90;;;;;;6034192;23;21153;-67
2021/10/04 02:56:21;;;;;;;2.60;2.33;;;13.50;99.90;;;;;;6035216;23;20638;-68
2021/10/04 02:58:49;;;;;;;3.23;2.50;;;13.50;99.90;;;;;;6061520;23;20279;-67
2021/10/04 03:01:15;;;;;;;2.57;2.37;;;13.60;99.90;;;;;;6060581;23;20203;-69
2021/10/04 03:03:40;;;;;;;3.33;2.40;;;13.60;99.90;;;;;;6061831;23;20622;-69
2021/10/04 03:06:06;;;;;;;3.93;2.80;;;13.70;99.90;;;;;;6060925;23;20490;-68
2021/10/04 03:08:33;;;;;;;3.70;2.77;;;13.60;99.90;;;;;;6059697;23;20156;-68
2021/10/04 03:10:59;;;;;;;3.93;2.27;;;13.60;99.90;;;;;;6060663;23;20281;-68
2021/10/04 03:13:25;;;;;;;3.67;2.40;;;13.50;99.90;;;;;;6033645;23;20986;-69
2021/10/04 03:15:50;;;;;;;3.73;2.60;;;13.50;99.90;;;;;;6059694;23;20671;-70
2021/10/04 03:18:16;;;;;;;3.50;3.20;;;13.50;99.90;;;;;;6059065;23;20183;-68
2021/10/04 03:20:42;;;;;;;3.00;2.77;;;13.50;99.90;;;;;;6060811;23;20184;-68
2021/10/04 03:23:13;;;;;;;4.00;3.30;;;13.50;99.90;;;;;;6058440;23;20614;-70
2021/10/04 03:25:38;;;;;;;3.20;2.90;;;13.50;99.90;;;;;;6058980;23;20164;-69
2021/10/04 03:28:06;;;;;;;5.77;3.47;;;13.50;99.90;;;;;;6033594;23;20563;-68
2021/10/04 03:30:50;;;;;;;5.33;3.27;;;13.50;99.90;;;;;;6058752;23;20270;-69
2021/10/04 03:33:17;;;;;;;4.00;3.43;;;13.40;99.90;;;;;;6060192;23;20564;-68
2021/10/04 03:35:42;;;;;;;5.13;3.43;;;13.50;99.90;;;;;;6064729;23;20559;-68
2021/10/04 03:38:10;;;;;;;6.03;4.20;;;13.50;99.90;;;;;;6034631;23;21149;-68
2021/10/04 03:40:38;;;;;;;4.60;3.30;;;13.50;99.90;;;;;;6061362;23;20290;-68
2021/10/04 03:43:06;;;;;;;4.57;3.27;;;13.50;99.90;;;;;;6059472;23;20612;-68
2021/10/04 03:45:31;;;;;;;4.63;3.33;;;13.50;99.90;;;;;;6060400;23;20535;-68
2021/10/04 03:47:57;;;;;;;3.77;3.47;;;13.50;99.90;;;;;;6061368;23;21111;-68
2021/10/04 03:50:23;;;;;;;4.90;3.40;;;13.60;99.90;;;;;;6033979;23;20518;-68
2021/10/04 03:52:54;;;;;;;5.23;3.60;;;13.50;99.90;;;;;;6060220;23;20163;-68
2021/10/04 03:55:21;;;;;;;5.53;3.13;;;13.60;99.90;;;;;;6035821;23;20266;-70
2021/10/04 03:57:49;;;;;;;5.00;3.60;;;13.50;99.90;;;;;;6035037;23;20643;-68
2021/10/04 04:00:21;;;;;;;5.40;3.63;;;13.50;99.90;;;;;;6061467;23;20592;-68
2021/10/04 04:02:47;;;;;;;6.67;3.30;;;13.50;99.90;;;;;;6060871;23;21113;-68
2021/10/04 04:05:15;;;;;;;6.10;3.23;;;13.50;99.90;;;;;;6059196;23;20587;-67
2021/10/04 04:07:41;;;;;;;3.33;3.00;;;13.50;99.90;;;;;;6059210;23;20599;-70
2021/10/04 04:10:10;;;;;;;4.77;3.30;;;13.40;99.90;;;;;;6035307;23;21129;-67
2021/10/04 04:12:39;;;;;;;4.07;3.57;;;13.50;99.90;;;;;;6058841;23;20267;-68
2021/10/04 04:15:09;;;;;;;4.57;3.50;;;13.50;99.90;;;;;;6060585;23;20604;-69
2021/10/04 04:17:34;;;;;;;7.17;3.50;;;13.50;99.90;;;;;;6058595;23;21089;-67
2021/10/04 04:20:00;;;;;;;4.70;3.70;;;13.50;99.90;;;;;;6058715;23;20579;-69
2021/10/04 04:22:28;;;;;;;3.60;3.23;;;13.50;99.90;;;;;;6057101;23;20661;-68
2021/10/04 04:24:55;;;;;;;4.03;3.50;;;13.40;99.90;;;;;;6059010;23;20202;-67
2021/10/04 04:27:22;;;;;;;4.30;3.40;;;13.40;99.90;;;;;;6058371;23;20537;-69
2021/10/04 04:29:47;;;;;;;4.93;3.80;;;13.50;99.90;;;;;;6059310;23;20643;-69
2021/10/04 04:32:15;;;;;;;4.60;3.67;;;13.50;99.90;;;;;;6059189;23;21020;-67
2021/10/04 04:34:44;;;;;;;5.37;3.87;;;13.40;99.90;;;;;;6060249;23;20564;-67
2021/10/04 04:37:09;;;;;;;4.50;3.70;;;13.40;99.90;;;;;;6061725;23;20532;-68
2021/10/04 04:39:36;;;;;;;6.43;4.13;;;13.40;99.90;;;;;;6035581;23;20616;-69
2021/10/04 04:42:03;;;;;;;4.03;3.20;;;13.50;99.90;;;;;;6060096;23;20624;-69
2021/10/04 04:44:33;;;;;;;6.37;3.87;;;13.50;99.90;;;;;;6061309;23;20966;-68
2021/10/04 04:47:02;;;;;;;4.00;3.60;;;13.50;99.90;;;;;;6062672;23;20556;-70
2021/10/04 04:49:27;;;;;;;3.13;2.90;;;13.50;99.90;;;;;;6039276;23;20564;-69
2021/10/04 04:51:58;;;;;;;5.40;3.50;;;13.60;99.90;;;;;;6034604;23;20624;-69
2021/10/04 04:54:24;;;;;;;3.70;2.90;;;13.50;99.90;;;;;;6059645;23;20203;-68
2021/10/04 04:56:53;;;;;;;6.97;3.30;;;13.50;99.90;;;;;;6059490;23;21010;-68
2021/10/04 04:59:22;;;;;;;3.37;3.07;;;13.40;99.90;;;;;;6058753;23;20952;-69
2021/10/04 05:01:48;;;;;;;4.63;3.70;;;13.50;99.90;;;;;;6034428;23;20599;-68
2021/10/04 05:04:13;;;;;;;3.73;3.07;;;13.50;99.90;;;;;;6057701;23;20991;-68
2021/10/04 05:06:39;;;;;;;4.73;3.20;;;13.50;99.90;;;;;;6036947;23;20159;-69
2021/10/04 05:09:06;;;;;;;4.70;3.40;;;13.50;99.90;;;;;;6059460;23;20174;-70
2021/10/04 05:11:39;;;;;;;6.77;4.00;;;13.50;99.90;;;;;;6056451;23;20194;-68
2021/10/04 05:14:10;;;;;;;8.70;4.00;;;13.50;99.90;;;;;;6057888;23;20707;-69
2021/10/04 05:16:36;;;;;;;3.87;3.07;;;13.50;99.90;;;;;;6057990;23;20512;-68
2021/10/04 05:19:01;;;;;;;4.73;3.20;;;13.50;99.90;;;;;;6056991;23;20989;-70
2021/10/04 05:21:27;;;;;;;4.47;3.13;;;13.60;99.90;;;;;;6059837;23;20176;-69
2021/10/04 05:23:52;;;;;;;3.80;3.20;;;13.60;99.90;;;;;;6065686;23;20211;-67
2021/10/04 05:26:21;;;;;;;4.70;3.50;;;13.60;99.90;;;;;;6060828;23;20602;-66
2021/10/04 05:28:51;;;;;;;3.60;3.20;;;13.50;99.90;;;;;;6058719;23;20167;-66
2021/10/04 05:31:19;;;;;;;3.87;2.90;;;13.50;99.90;;;;;;6058159;23;20588;-69
2021/10/04 05:33:50;;;;;;;3.43;3.07;;;13.50;99.90;;;;;;6056353;23;20603;-70
2021/10/04 05:36:16;;;;;;;6.30;3.20;;;13.50;99.90;;;;;;6058583;23;20519;-69
2021/10/04 05:38:41;;;;;;;3.57;3.23;;;13.50;99.90;;;;;;6056526;23;21125;-69
2021/10/04 05:41:09;;;;;;;7.33;3.70;;;13.60;99.90;;;;;;6057610;23;20189;-69
2021/10/04 05:43:35;;;;;;;4.13;3.37;;;13.50;99.90;;;;;;6058053;23;20195;-70
2021/10/04 05:46:02;;;;;;;5.37;4.30;;;13.50;99.90;;;;;;6065151;23;20608;-67
2021/10/04 05:48:28;;;;;;;4.07;2.77;;;13.50;99.90;;;;;;6073547;23;20254;-69
2021/10/04 05:50:56;;;;;;;5.17;3.20;;;13.50;99.90;;;;;;6043429;23;21134;-68
2021/10/04 05:53:21;;;;;;;7.10;3.10;;;13.60;99.90;;;;;;6038531;23;20210;-68
2021/10/04 05:55:51;;;;;;;5.30;3.37;;;13.50;99.90;;;;;;6062182;23;20611;-68
2021/10/04 05:58:17;;;;;;;4.30;2.90;;;13.50;99.90;;;;;;6058705;23;20183;-68
2021/10/04 06:00:43;;;;;;;4.80;3.03;;;13.50;99.90;;;;;;6056525;23;20588;-70
2021/10/04 06:03:09;;;;;;;5.07;3.50;;;13.50;99.90;;;;;;6055664;23;20156;-67
2021/10/04 06:05:35;;;;;;;5.73;3.83;;;13.50;99.90;;;;;;6057329;23;20579;-68
2021/10/04 06:08:02;;;;;;;6.27;3.10;;;13.50;99.90;;;;;;6056523;23;20543;-68
2021/10/04 06:10:28;;;;;;;5.67;3.40;;;13.50;99.90;;;;;;6062980;23;20565;-68
2021/10/04 06:12:56;;;;;;;4.00;3.20;;;13.40;99.90;;;;;;6057033;23;20643;-63
2021/10/04 06:15:22;;;;;;;3.40;3.10;;;13.50;99.90;;;;;;6056749;23;20528;-68
2021/10/04 06:17:50;;;;;;;4.90;4.00;;;13.50;99.90;;;;;;6058889;23;20706;-68
2021/10/04 06:20:18;;;;;;;4.50;3.10;;;13.60;99.90;;;;;;6058653;23;20215;-68
2021/10/04 06:22:44;;;;;;;5.27;3.23;;;13.50;99.90;;;;;;6057471;23;20551;-69
2021/10/04 06:25:11;;;;;;;5.10;3.40;;;13.60;99.90;;;;;;6058239;23;20595;-68
2021/10/04 06:27:37;;;;;;;3.60;3.30;;;13.60;99.90;;;;;;6056734;23;20535;-67
2021/10/04 06:30:05;;;;;;;4.63;2.80;;;13.60;99.90;;;;;;6057756;23;20688;-70
2021/10/04 06:32:33;;;;;;;5.37;3.27;;;13.60;99.90;;;;;;6058673;23;20208;-69
2021/10/04 06:35:06;;;;;;;3.93;3.00;;;13.40;99.90;;;;;;6059067;23;20630;-67
2021/10/04 06:37:39;;;;;;;3.60;2.70;;;13.40;99.90;;;;;;6058392;23;20503;-68
2021/10/04 06:40:08;;;;;;;6.13;3.60;;;13.50;99.90;;;;;;6057291;23;20674;-68
2021/10/04 06:42:48;;;;;;;4.77;3.03;;;13.50;99.90;;;;;;6057661;23;20539;-68
2021/10/04 06:45:14;;;;;;;3.47;3.17;;;13.60;99.90;;;;;;6058384;23;20591;-67
2021/10/04 06:47:40;;;;;;;3.03;2.73;;;13.60;99.90;;;;;;6057825;23;20544;-69
2021/10/04 06:50:09;;;;;;;4.70;3.70;;;13.60;99.90;;;;;;6061224;23;20719;-68
2021/10/04 06:52:35;;;;;;;3.30;3.00;;;13.70;99.90;;;;;;6062573;23;20878;-68
2021/10/04 06:55:03;;;;;;;3.47;2.70;;;13.70;99.90;;;;;;6033839;23;20595;-68
2021/10/04 06:57:29;;;;;;;4.30;3.00;;;13.70;99.90;;;;;;6061977;23;20542;-67
2021/10/04 06:59:55;;;;;;;4.60;2.83;;;13.80;99.90;;;;;;6061863;23;20571;-67
2021/10/04 07:02:20;;;;;;;6.73;3.30;;;13.80;99.90;;;;;;6058143;23;20610;-68
2021/10/04 07:04:46;;;;;;;5.80;2.60;;;13.80;99.90;;;;;;6059153;23;20699;-68
2021/10/04 07:07:14;;;;;;;6.30;3.20;;;13.90;99.90;;;;;;6062979;23;20212;-68
2021/10/04 07:09:41;;;;;;;4.00;2.10;;;13.90;99.90;;;;;;6060200;23;20278;-68
2021/10/04 07:12:07;;;;;;;2.50;2.23;;;13.90;99.90;;;;;;6055730;23;20564;-67
2021/10/04 07:14:35;;;;;;;4.73;2.60;;;13.90;99.90;;;;;;6054098;23;20591;-68
2021/10/04 07:17:04;;;;;;;2.87;2.27;;;13.90;99.90;;;;;;6055878;23;20892;-69
2021/10/04 07:19:32;;;;;;;3.00;2.70;;;13.90;99.90;;;;;;6053144;23;20643;-68
2021/10/04 07:21:59;;;;;;;3.03;2.50;;;14.00;99.90;;;;;;6022561;23;21027;-69
2021/10/04 07:24:25;;;;;;;3.23;2.60;;;14.00;99.90;;;;;;6032402;23;20711;-69
2021/10/04 07:26:54;;;;;;;4.30;2.80;;;14.00;99.90;;;;;;6061797;23;20563;-69
2021/10/04 07:29:19;;;;;;;5.80;2.87;;;14.10;99.90;;;;;;6029199;23;21115;-68
2021/10/04 07:31:46;;;;;;;4.80;3.00;;;14.20;99.90;;;;;;6057853;23;20628;-68
2021/10/04 07:34:14;;;;;;;5.23;3.03;;;14.20;99.90;;;;;;6057415;23;20203;-69
2021/10/04 07:36:39;;;;;;;4.20;2.50;;;14.20;99.90;;;;;;6058074;23;20905;-69
2021/10/04 07:39:06;;;;;;;6.03;2.60;;;14.30;99.90;;;;;;6055620;23;20636;-68
2021/10/04 07:41:37;;;;;;;9.90;2.97;;;14.30;99.90;;;;;;6057771;23;20176;-69
2021/10/04 07:44:03;;;;;;;6.43;2.43;;;14.30;99.90;;;;;;6058071;23;20606;-68
2021/10/04 07:46:31;;;;;;;3.10;2.30;;;14.40;99.90;;;;;;6059246;23;20873;-70
2021/10/04 07:48:59;;;;;;;4.87;2.50;;;14.40;99.90;;;;;;6058336;23;20549;-67
2021/10/04 07:51:27;;;;;;;6.73;2.90;;;14.50;99.90;;;;;;6061407;23;20987;-69
2021/10/04 07:54:00;;;;;;;5.03;2.50;;;14.50;99.90;;;;;;6057874;23;21165;-69
2021/10/04 07:56:26;;;;;;;3.63;2.27;;;14.60;99.90;;;;;;6055756;23;20509;-69
2021/10/04 07:58:52;;;;;;;2.87;2.00;;;14.60;99.90;;;;;;6048347;23;20595;-62
2021/10/04 08:01:17;;;;;;;2.93;2.63;;;14.60;99.90;;;;;;6059148;23;20196;-62
2021/10/04 08:03:43;;;;;;;2.53;2.27;;;14.60;99.90;;;;;;6032316;23;20196;-68
2021/10/04 08:06:09;;;;;;;3.30;1.90;;;14.70;99.90;;;;;;6058170;23;20159;-68
2021/10/04 08:08:35;;;;;;;2.77;2.20;;;14.80;99.90;;;;;;6056834;23;20171;-69
2021/10/04 08:11:01;;;;;;;4.10;2.20;;;14.80;99.90;;;;;;6060000;23;20179;-68
2021/10/04 08:13:27;;;;;;;3.33;2.00;;;14.80;99.90;;;;;;6034133;23;20630;-70
2021/10/04 08:15:52;;;;;;;2.10;1.70;;;14.90;99.90;;;;;;6030455;23;20619;-69
2021/10/04 08:18:18;;;;;;;6.07;2.13;;;14.90;99.90;;;;;;6061688;23;20925;-69
2021/10/04 08:20:44;;;;;;;4.23;2.20;;;15.00;99.90;;;;;;6061259;23;20179;-68
2021/10/04 08:23:10;;;;;;;2.53;1.93;;;15.00;99.90;;;;;;6061189;23;20167;-68
2021/10/04 08:25:36;;;;;;;2.33;2.13;;;15.10;99.90;;;;;;6060531;23;20156;-68
2021/10/04 08:28:02;;;;;;;3.63;2.00;;;15.20;99.90;;;;;;6061096;23;20532;-68
2021/10/04 08:30:27;;;;;;;2.97;2.20;;;15.20;99.90;;;;;;6063441;23;20266;-69
2021/10/04 08:32:53;;;;;;;1.90;1.70;;;15.20;99.90;;;;;;6062336;23;20156;-69
2021/10/04 08:35:19;;;;;;;4.47;1.80;;;15.20;99.90;;;;;;6061007;23;20196;-69
2021/10/04 08:37:45;;;;;;;2.47;1.83;;;15.20;99.90;;;;;;6063595;23;20540;-68
2021/10/04 08:40:15;;;;;;;3.17;1.67;;;15.30;99.90;;;;;;6037139;23;20188;-69
2021/10/04 08:42:41;;;;;;;5.13;1.80;;;15.30;99.90;;;;;;6063384;23;20552;-69
2021/10/04 08:45:08;;;;;;;3.07;2.40;;;15.30;99.90;;;;;;6064108;23;20608;-70
2021/10/04 08:47:38;;;;;;;2.27;1.57;;;15.30;99.90;;;;;;6064555;23;21091;-68
2021/10/04 08:50:07;;;;;;;3.67;1.50;;;15.30;99.90;;;;;;6039005;23;20603;-69
2021/10/04 08:52:32;;;;;;;2.10;1.50;;;15.30;99.90;;;;;;6062456;23;20615;-69
2021/10/04 08:55:00;;;;;;;3.00;2.00;;;15.40;99.90;;;;;;6062481;23;20599;-68
2021/10/04 08:57:26;;;;;;;2.97;1.97;;;15.40;99.90;;;;;;6036915;23;20183;-68
2021/10/04 08:59:51;;;;;;;3.10;1.90;;;15.50;99.90;;;;;;6063597;23;20699;-69
2021/10/04 09:02:31;;;;;;;2.20;1.70;;;15.50;99.90;;;;;;6062801;23;20588;-68
2021/10/04 09:05:12;;;;;;;5.23;2.10;;;15.60;99.90;;;;;;6061442;23;20195;-68
2021/10/04 09:07:40;;;;;;;4.23;2.00;;;15.60;99.90;;;;;;6036976;23;20655;-69
2021/10/04 09:10:07;;;;;;;2.17;1.70;;;15.60;99.90;;;;;;6060908;23;20598;-68
2021/10/04 09:12:43;;;;;;;2.23;1.70;;;15.60;99.90;;;;;;6062344;23;20615;-68
2021/10/04 09:15:25;;;;;;;3.70;1.97;;;15.50;99.90;;;;;;6060940;23;20627;-70
2021/10/04 09:17:51;;;;;;;2.00;1.73;;;15.50;99.90;;;;;;6063095;23;20764;-67
2021/10/04 09:20:18;;;;;;;1.90;1.70;;;15.60;99.90;;;;;;6063997;23;20655;-67
2021/10/04 09:22:44;;;;;;;5.00;1.57;;;15.50;99.90;;;;;;6059727;23;20535;-68
2021/10/04 09:25:10;;;;;;;2.70;1.70;;;15.50;99.90;;;;;;6062609;23;20670;-69
2021/10/04 09:27:44;;;;;;;3.73;1.70;;;15.60;99.90;;;;;;6062757;23;20156;-68
2021/10/04 09:30:16;;;;;;;4.00;1.73;;;15.60;99.90;;;;;;6062150;23;20576;-68
2021/10/04 09:32:45;;;;;;;2.90;1.50;;;15.60;99.90;;;;;;6060717;23;20504;-68
2021/10/04 09:35:20;;;;;;;2.47;1.80;;;15.70;99.90;;;;;;6063013;23;20686;-69
2021/10/04 09:38:06;;;;;;;3.10;1.50;;;15.70;99.90;;;;;;6062456;23;20949;-68
2021/10/04 09:40:39;;;;;;;2.50;1.40;;;15.60;99.90;;;;;;6034007;23;20608;-68
2021/10/04 09:43:08;;;;;;;3.40;1.70;;;15.50;99.90;;;;;;6062299;23;20615;-68
2021/10/04 09:45:34;;;;;;;5.13;1.90;;;15.40;99.90;;;;;;6060712;23;21072;-68
2021/10/04 09:48:08;;;;;;;3.50;1.50;;;15.50;99.90;;;;;;6061977;23;20555;-68
2021/10/04 09:50:34;;;;;;;2.20;1.40;;;15.60;99.90;;;;;;6061442;23;20614;-68
2021/10/04 09:53:02;;;;;;;2.70;1.80;;;15.60;99.90;;;;;;6065834;23;20539;-69
2021/10/04 09:55:34;;;;;;;3.40;1.60;;;15.60;99.90;;;;;;6065722;23;20916;-68
2021/10/04 09:58:16;;;;;;;2.80;1.67;;;15.60;99.90;;;;;;6062980;23;21101;-68
2021/10/04 10:00:53;;;;;;;1.60;1.50;;;15.70;99.90;;;;;;6064792;23;20887;-69
2021/10/04 10:03:22;;;;;;;1.47;1.37;;;15.70;99.90;;;;;;6063611;23;20594;-69
2021/10/04 10:05:52;;;;;;;3.27;1.47;;;15.60;99.90;;;;;;6037872;23;20572;-69
2021/10/04 10:08:20;;;;;;;2.33;1.50;;;15.70;99.90;;;;;;6037594;23;20603;-69
2021/10/04 10:10:46;;;;;;;2.80;1.43;;;15.70;99.90;;;;;;6063565;23;20576;-69
2021/10/04 10:13:14;;;;;;;4.10;1.50;;;15.70;99.90;;;;;;6063563;23;20539;-68
2021/10/04 10:15:46;;;;;;;2.10;1.30;;;15.80;99.90;;;;;;6063035;23;20984;-69
2021/10/04 10:18:17;;;;;;;3.33;1.50;;;15.80;99.90;;;;;;6071563;23;20599;-69
2021/10/04 10:20:43;;;;;;;5.40;1.87;;;15.90;99.90;;;;;;6065545;23;20629;-69
2021/10/04 10:23:10;;;;;;;3.53;1.70;;;15.90;99.90;;;;;;6061823;23;20547;-69
2021/10/04 10:25:37;;;;;;;3.30;1.23;;;15.90;99.90;;;;;;6062337;23;21081;-69
2021/10/04 10:28:07;;;;;;;1.80;1.33;;;15.90;99.90;;;;;;6063909;23;20540;-69
2021/10/04 10:30:33;;;;;;;2.80;1.50;;;15.80;99.90;;;;;;6065083;23;20647;-69
2021/10/04 10:32:59;;;;;;;5.43;1.67;;;15.80;99.90;;;;;;6062727;23;20627;-70
2021/10/04 10:35:44;;;;;;;2.20;1.60;;;15.80;99.90;;;;;;6063567;23;20547;-69
2021/10/04 10:38:10;;;;;;;2.50;1.60;;;15.80;99.90;;;;;;6063792;23;20611;-67
2021/10/04 10:40:36;;;;;;;3.10;2.10;;;15.80;99.90;;;;;;6064214;23;20582;-68
2021/10/04 10:43:12;;;;;;;3.23;1.87;;;15.80;99.90;;;;;;6059916;23;20195;-69
2021/10/04 10:45:47;;;;;;;6.30;1.60;;;15.80;99.90;;;;;;6059818;23;20191;-69
2021/10/04 10:48:13;;;;;;;4.00;2.07;;;15.90;99.90;;;;;;6062378;23;20540;-69
2021/10/04 10:50:49;;;;;;;2.20;1.43;;;15.90;99.90;;;;;;6059807;23;20970;-69
2021/10/04 10:53:23;;;;;;;3.53;1.60;;;15.90;99.90;;;;;;6060963;23;20587;-69
2021/10/04 10:56:01;;;;;;;1.97;1.60;;;16.00;99.90;;;;;;6038189;23;20942;-70
2021/10/04 10:58:30;;;;;;;4.50;1.40;;;16.00;99.90;;;;;;6058860;23;20551;-69
2021/10/04 11:01:14;;;;;;;2.50;1.43;;;16.10;99.90;;;;;;6060375;23;20568;-69
2021/10/04 11:03:48;;;;;;;3.13;1.80;;;16.10;99.90;;;;;;6059349;23;20626;-69
2021/10/04 11:06:16;;;;;;;3.93;1.83;;;16.10;99.90;;;;;;6059033;23;20571;-69
2021/10/04 11:08:45;;;;;;;2.73;1.40;;;16.10;99.90;;;;;;6058514;23;20555;-71
2021/10/04 11:11:15;;;;;;;1.83;1.30;;;16.10;99.90;;;;;;6060442;23;20559;-69
2021/10/04 11:14:02;;;;;;;3.13;1.33;;;16.30;99.90;;;;;;6058994;23;20678;-69
2021/10/04 11:16:30;;;;;;;3.13;1.57;;;16.20;99.90;;;;;;6054170;23;20528;-69
2021/10/04 11:18:56;;;;;;;1.77;1.40;;;16.30;99.90;;;;;;6031050;23;20607;-68
2021/10/04 11:21:24;;;;;;;2.10;1.60;;;16.30;99.90;;;;;;6059982;23;20568;-69
2021/10/04 11:23:53;;;;;;;2.87;1.43;;;16.30;99.90;;;;;;6059946;23;20245;-69
2021/10/04 11:26:23;;;;;;;4.20;1.40;;;16.30;99.90;;;;;;6057134;23;20592;-70
2021/10/04 11:28:58;;;;;;;3.60;1.67;;;16.40;99.90;;;;;;6060489;23;20548;-69
2021/10/04 11:31:29;;;;;;;2.27;1.50;;;16.50;99.90;;;;;;6028376;23;21316;-72
2021/10/04 11:33:58;;;;;;;2.70;1.57;;;16.50;99.90;;;;;;6057634;23;21157;-70
2021/10/04 11:36:31;;;;;;;3.20;1.70;;;16.60;99.90;;;;;;6055563;23;20588;-69
2021/10/04 11:39:03;;;;;;;2.53;1.63;;;16.70;99.90;;;;;;6059958;23;20580;-68
2021/10/04 11:41:35;;;;;;;3.07;1.80;;;16.70;99.90;;;;;;6058188;23;20574;-69
2021/10/04 11:44:04;;;;;;;2.47;1.73;;;16.80;99.90;;;;;;6057187;23;20588;-69
2021/10/04 11:46:34;;;;;;;1.70;1.17;;;16.80;99.90;;;;;;6057383;23;20889;-68
2021/10/04 11:49:05;;;;;;;3.63;1.37;;;16.80;99.90;;;;;;6055794;23;20841;-69
2021/10/04 11:51:34;;;;;;;3.10;1.30;;;16.80;99.90;;;;;;6060758;23;20562;-68
2021/10/04 11:54:00;;;;;;;3.00;1.80;;;16.80;99.90;;;;;;6061798;23;20686;-68
2021/10/04 11:56:26;;;;;;;3.20;1.73;;;16.90;99.90;;;;;;6035608;23;20571;-68
2021/10/04 11:58:57;;;;;;;2.03;1.03;;;16.90;99.90;;;;;;6060784;23;20586;-69
2021/10/04 12:01:33;;;;;;;2.70;1.33;;;16.90;99.90;;;;;;6058907;23;20187;-69
2021/10/04 12:04:10;;;;;;;3.70;1.47;;;16.90;99.90;;;;;;6055342;23;20595;-69
2021/10/04 12:06:38;;;;;;;3.73;1.40;;;17.00;99.90;;;;;;6060145;23;20591;-68
2021/10/04 12:09:06;;;;;;;3.00;1.40;;;17.00;99.90;;;;;;6037186;23;20572;-70
2021/10/04 12:11:32;;;;;;;2.80;1.73;;;17.20;99.90;;;;;;6061563;23;20568;-69
2021/10/04 12:14:00;;;;;;;1.70;1.60;;;17.50;99.90;;;;;;6060023;23;20989;-69
2021/10/04 12:16:30;;;;;;;2.00;1.40;;;17.70;99.90;;;;;;6057978;23;20859;-70
2021/10/04 12:19:00;;;;;;;3.73;1.30;;;18.20;99.90;;;;;;6060055;23;20560;-70
2021/10/04 12:21:38;;;;;;;3.53;1.40;;;19.40;99.90;;;;;;6062832;23;20568;-70
2021/10/04 12:24:07;;;;;;;1.97;1.37;;;21.80;99.90;;;;;;6059691;23;21070;-69
2021/10/04 12:26:33;;;;;;;2.30;1.07;;;24.00;99.90;;;;;;6028434;23;20575;-68
2021/10/04 12:28:59;;;;;;;4.60;1.60;;;24.20;99.90;;;;;;6057310;23;21058;-68
2021/10/04 12:31:36;;;;;;;1.80;1.33;;;24.80;99.90;;;;;;6058062;23;20567;-68
2021/10/04 12:34:22;;;;;;;5.70;1.30;;;24.90;99.90;;;;;;6059782;23;20206;-69
2021/10/04 12:36:48;;;;;;;2.23;1.40;;;24.40;99.90;;;;;;6059950;23;20508;-71
2021/10/04 12:39:13;;;;;;;3.13;1.27;;;23.60;99.90;;;;;;6059347;23;20603;-69
2021/10/04 12:41:54;;;;;;;3.43;1.80;;;22.80;99.90;;;;;;6055882;23;20584;-69
2021/10/04 12:44:20;;;;;;;1.20;1.10;;;21.90;99.90;;;;;;6060829;23;20210;-69
2021/10/04 12:47:06;;;;;;;2.07;1.20;;;21.50;99.90;;;;;;6058666;23;20618;-69
2021/10/04 12:49:32;;;;;;;1.60;1.17;;;21.10;99.90;;;;;;6057155;23;20540;-69
2021/10/04 12:51:59;;;;;;;2.67;1.10;;;20.70;99.90;;;;;;6059474;23;20631;-68
2021/10/04 12:54:33;;;;;;;1.57;1.30;;;20.60;99.90;;;;;;6056855;23;20606;-68